sensor_id;sensor_type;location;lat;lon;timestamp;pressure;altitude;pressure_sealevel;temperature;humidity
20897;BME280;10608;42.600;23.398;2023-08-06T00:00:38;81155.56;;;-138.15;78.59
20897;BME280;10608;42.600;23.398;2023-08-06T00:03:03;81159.53;;;-138.15;79.12
20897;BME280;10608;42.600;23.398;2023-08-06T00:05:29;81173.44;;;-138.15;80.99
20897;BME280;10608;42.600;23.398;2023-08-06T00:07:54;81119.78;;;-138.15;80.85
20897;BME280;10608;42.600;23.398;2023-08-06T00:10:20;81153.56;;;-138.15;78.84
20897;BME280;10608;42.600;23.398;2023-08-06T00:12:45;81203.22;;;-138.15;78.29
20897;BME280;10608;42.600;23.398;2023-08-06T00:15:11;81203.22;;;-138.15;80.69
20897;BME280;10608;42.600;23.398;2023-08-06T00:17:36;81165.50;;;-138.15;81.17
20897;BME280;10608;42.600;23.398;2023-08-06T00:20:03;81169.47;;;-138.15;81.52
20897;BME280;10608;42.600;23.398;2023-08-06T00:22:35;81239.00;;;-138.15;80.91
20897;BME280;10608;42.600;23.398;2023-08-06T00:25:02;81195.28;;;-138.15;83.68
20897;BME280;10608;42.600;23.398;2023-08-06T00:27:27;81175.41;;;-138.15;84.55
20897;BME280;10608;42.600;23.398;2023-08-06T00:29:53;81161.50;;;-138.15;81.66
20897;BME280;10608;42.600;23.398;2023-08-06T00:32:18;81221.09;;;-138.15;80.10
20897;BME280;10608;42.600;23.398;2023-08-06T00:34:44;81223.09;;;-138.15;82.68
20897;BME280;10608;42.600;23.398;2023-08-06T00:37:09;81229.06;;;-138.15;81.41
20897;BME280;10608;42.600;23.398;2023-08-06T00:39:34;81191.31;;;-138.15;82.03
20897;BME280;10608;42.600;23.398;2023-08-06T00:42:00;81175.41;;;-138.15;84.24
20897;BME280;10608;42.600;23.398;2023-08-06T00:44:25;81093.97;;;-138.15;85.44
20897;BME280;10608;42.600;23.398;2023-08-06T00:46:50;81161.50;;;-138.15;85.30
20897;BME280;10608;42.600;23.398;2023-08-06T00:49:16;81105.88;;;-138.15;83.76
20897;BME280;10608;42.600;23.398;2023-08-06T00:51:42;81167.47;;;-138.15;83.41
20897;BME280;10608;42.600;23.398;2023-08-06T00:54:09;81155.56;;;-138.15;83.88
20897;BME280;10608;42.600;23.398;2023-08-06T00:56:34;81123.78;;;-138.15;83.33
20897;BME280;10608;42.600;23.398;2023-08-06T00:59:01;81119.78;;;-138.15;84.96
20897;BME280;10608;42.600;23.398;2023-08-06T01:01:26;81131.72;;;-138.15;84.52
20897;BME280;10608;42.600;23.398;2023-08-06T01:03:53;81135.69;;;-138.15;82.05
20897;BME280;10608;42.600;23.398;2023-08-06T01:06:29;81143.63;;;-138.15;81.43
20897;BME280;10608;42.600;23.398;2023-08-06T01:09:03;81183.38;;;-138.15;82.18
20897;BME280;10608;42.600;23.398;2023-08-06T01:11:39;81161.50;;;-138.15;83.98
20897;BME280;10608;42.600;23.398;2023-08-06T01:14:15;81161.50;;;-138.15;85.60
20897;BME280;10608;42.600;23.398;2023-08-06T01:16:43;81131.72;;;-138.15;86.14
20897;BME280;10608;42.600;23.398;2023-08-06T01:19:18;81072.13;;;-138.15;87.06
20897;BME280;10608;42.600;23.398;2023-08-06T01:21:44;81048.28;;;-138.15;86.86
20897;BME280;10608;42.600;23.398;2023-08-06T01:24:09;81139.66;;;-138.15;85.74
20897;BME280;10608;42.600;23.398;2023-08-06T01:26:50;81091.97;;;-138.15;85.98
20897;BME280;10608;42.600;23.398;2023-08-06T01:29:23;81056.22;;;-138.15;85.43
20897;BME280;10608;42.600;23.398;2023-08-06T01:31:51;81117.81;;;-138.15;85.04
20897;BME280;10608;42.600;23.398;2023-08-06T01:34:21;81052.25;;;-138.15;85.71
20897;BME280;10608;42.600;23.398;2023-08-06T01:36:47;81040.34;;;-138.15;84.80
20897;BME280;10608;42.600;23.398;2023-08-06T01:39:13;81052.25;;;-138.15;85.87
20897;BME280;10608;42.600;23.398;2023-08-06T01:41:38;81050.28;;;-138.15;83.51
20897;BME280;10608;42.600;23.398;2023-08-06T01:44:04;81119.78;;;-138.15;83.89
20897;BME280;10608;42.600;23.398;2023-08-06T01:46:29;81091.97;;;-138.15;83.45
20897;BME280;10608;42.600;23.398;2023-08-06T01:48:54;81125.75;;;-138.15;83.21
20897;BME280;10608;42.600;23.398;2023-08-06T01:51:20;81197.28;;;-138.15;84.43
20897;BME280;10608;42.600;23.398;2023-08-06T01:53:45;81169.47;;;-138.15;86.11
20897;BME280;10608;42.600;23.398;2023-08-06T01:56:11;81119.78;;;-138.15;84.77
20897;BME280;10608;42.600;23.398;2023-08-06T01:58:36;81131.72;;;-138.15;86.08
20897;BME280;10608;42.600;23.398;2023-08-06T02:01:02;81121.78;;;-138.15;85.22
20897;BME280;10608;42.600;23.398;2023-08-06T02:03:27;81147.59;;;-138.15;85.50
20897;BME280;10608;42.600;23.398;2023-08-06T02:05:53;81115.81;;;-138.15;86.60
20897;BME280;10608;42.600;23.398;2023-08-06T02:08:18;81143.63;;;-138.15;87.63
20897;BME280;10608;42.600;23.398;2023-08-06T02:10:45;81052.25;;;-138.15;87.15
20897;BME280;10608;42.600;23.398;2023-08-06T02:13:10;81123.78;;;-138.15;86.26
20897;BME280;10608;42.600;23.398;2023-08-06T02:15:35;81139.66;;;-138.15;86.38
20897;BME280;10608;42.600;23.398;2023-08-06T02:18:01;81050.28;;;-138.15;85.65
20897;BME280;10608;42.600;23.398;2023-08-06T02:20:26;81163.50;;;-138.15;86.32
20897;BME280;10608;42.600;23.398;2023-08-06T02:22:52;81143.63;;;-138.15;87.69
20897;BME280;10608;42.600;23.398;2023-08-06T02:25:17;81115.81;;;-138.15;89.90
20897;BME280;10608;42.600;23.398;2023-08-06T02:27:42;81044.31;;;-138.15;91.28
20897;BME280;10608;42.600;23.398;2023-08-06T02:30:08;81024.44;;;-138.15;90.84
20897;BME280;10608;42.600;23.398;2023-08-06T02:32:33;81052.25;;;-138.15;90.62
20897;BME280;10608;42.600;23.398;2023-08-06T02:35:01;81000.59;;;-138.15;90.25
20897;BME280;10608;42.600;23.398;2023-08-06T02:37:27;81139.66;;;-138.15;89.09
20897;BME280;10608;42.600;23.398;2023-08-06T02:39:52;81121.78;;;-138.15;89.25
20897;BME280;10608;42.600;23.398;2023-08-06T02:42:18;81088.00;;;-138.15;90.96
20897;BME280;10608;42.600;23.398;2023-08-06T02:44:43;81070.13;;;-138.15;90.67
20897;BME280;10608;42.600;23.398;2023-08-06T02:47:08;81058.22;;;-138.15;89.94
20897;BME280;10608;42.600;23.398;2023-08-06T02:49:34;81060.19;;;-138.15;89.15
20897;BME280;10608;42.600;23.398;2023-08-06T02:51:59;81107.88;;;-138.15;88.49
20897;BME280;10608;42.600;23.398;2023-08-06T02:54:25;81119.78;;;-138.15;88.70
20897;BME280;10608;42.600;23.398;2023-08-06T02:56:50;81139.66;;;-138.15;89.29
20897;BME280;10608;42.600;23.398;2023-08-06T02:59:16;81201.25;;;-138.15;87.95
20897;BME280;10608;42.600;23.398;2023-08-06T03:01:41;81183.38;;;-138.15;90.39
20897;BME280;10608;42.600;23.398;2023-08-06T03:04:07;81008.56;;;-138.15;92.94
20897;BME280;10608;42.600;23.398;2023-08-06T03:06:32;81155.56;;;-138.15;93.20
20897;BME280;10608;42.600;23.398;2023-08-06T03:08:57;81056.22;;;-138.15;92.74
20897;BME280;10608;42.600;23.398;2023-08-06T03:11:23;81207.19;;;-138.15;92.71
20897;BME280;10608;42.600;23.398;2023-08-06T03:13:48;81131.72;;;-138.15;95.15
20897;BME280;10608;42.600;23.398;2023-08-06T03:16:14;80865.53;;;-138.15;97.33
20897;BME280;10608;42.600;23.398;2023-08-06T03:18:39;80065.06;;;-138.15;99.43
20897;BME280;10608;42.600;23.398;2023-08-06T03:21:05;77811.56;;;-138.15;100.00
20897;BME280;10608;42.600;23.398;2023-08-06T03:23:30;74240.34;;;-138.15;100.00
20897;BME280;10608;42.600;23.398;2023-08-06T03:25:56;77132.78;;;-138.15;100.00
20897;BME280;10608;42.600;23.398;2023-08-06T03:28:21;74958.28;;;-138.15;100.00
20897;BME280;10608;42.600;23.398;2023-08-06T03:30:47;69917.44;;;-138.15;100.00
20897;BME280;10608;42.600;23.398;2023-08-06T03:33:13;65848.56;;;-138.15;100.00
20897;BME280;10608;42.600;23.398;2023-08-06T03:35:39;73944.84;;;-138.15;100.00
20897;BME280;10608;42.600;23.398;2023-08-06T03:38:04;76618.81;;;-138.15;100.00
20897;BME280;10608;42.600;23.398;2023-08-06T03:40:29;77648.81;;;-138.15;100.00
20897;BME280;10608;42.600;23.398;2023-08-06T03:42:55;77871.13;;;-138.15;100.00
20897;BME280;10608;42.600;23.398;2023-08-06T03:45:20;78849.81;;;-138.15;100.00
20897;BME280;10608;42.600;23.398;2023-08-06T03:47:46;78649.28;;;-138.15;100.00
20897;BME280;10608;42.600;23.398;2023-08-06T03:50:11;77027.63;;;-138.15;100.00
20897;BME280;10608;42.600;23.398;2023-08-06T03:52:36;75831.13;;;-138.15;100.00
20897;BME280;10608;42.600;23.398;2023-08-06T03:55:02;74875.00;;;-138.15;100.00
20897;BME280;10608;42.600;23.398;2023-08-06T03:57:27;73427.34;;;-138.15;100.00
20897;BME280;10608;42.600;23.398;2023-08-06T03:59:53;72683.88;;;-138.15;100.00
20897;BME280;10608;42.600;23.398;2023-08-06T04:02:18;69860.00;;;-138.15;100.00
20897;BME280;10608;42.600;23.398;2023-08-06T04:04:43;66159.28;;;-138.15;100.00
20897;BME280;10608;42.600;23.398;2023-08-06T04:07:09;58843.25;;;-138.15;100.00
20897;BME280;10608;42.600;23.398;2023-08-06T04:09:51;53692.53;;;-138.15;100.00
20897;BME280;10608;42.600;23.398;2023-08-06T04:12:17;49906.31;;;-138.15;100.00
20897;BME280;10608;42.600;23.398;2023-08-06T04:14:42;45619.66;;;-138.15;100.00
20897;BME280;10608;42.600;23.398;2023-08-06T04:17:08;47384.19;;;-138.15;100.00
20897;BME280;10608;42.600;23.398;2023-08-06T04:19:33;50915.63;;;-138.15;100.00
20897;BME280;10608;42.600;23.398;2023-08-06T04:21:58;59793.56;;;-138.15;100.00
20897;BME280;10608;42.600;23.398;2023-08-06T04:24:24;62711.16;;;-138.15;100.00
20897;BME280;10608;42.600;23.398;2023-08-06T04:26:49;63007.78;;;-138.15;100.00
20897;BME280;10608;42.600;23.398;2023-08-06T04:29:14;67634.00;;;-138.15;100.00
20897;BME280;10608;42.600;23.398;2023-08-06T04:31:40;72428.16;;;-138.15;100.00
20897;BME280;10608;42.600;23.398;2023-08-06T04:34:05;74131.25;;;-138.15;100.00
20897;BME280;10608;42.600;23.398;2023-08-06T04:36:31;75319.31;;;-138.15;100.00
20897;BME280;10608;42.600;23.398;2023-08-06T04:38:56;73693.03;;;-138.15;100.00
20897;BME280;10608;42.600;23.398;2023-08-06T04:41:22;69372.72;;;-138.15;100.00
20897;BME280;10608;42.600;23.398;2023-08-06T04:43:47;62639.97;;;-138.15;100.00
20897;BME280;10608;42.600;23.398;2023-08-06T04:46:12;61457.69;;;-138.15;100.00
20897;BME280;10608;42.600;23.398;2023-08-06T04:48:38;61291.63;;;-138.15;100.00
20897;BME280;10608;42.600;23.398;2023-08-06T04:51:03;66644.22;;;-138.15;100.00
20897;BME280;10608;42.600;23.398;2023-08-06T04:53:28;70557.38;;;-138.15;100.00
20897;BME280;10608;42.600;23.398;2023-08-06T04:55:54;74077.72;;;-138.15;100.00
20897;BME280;10608;42.600;23.398;2023-08-06T04:58:19;76817.25;;;-138.15;100.00
20897;BME280;10608;42.600;23.398;2023-08-06T05:00:45;78861.72;;;-138.15;100.00
20897;BME280;10608;42.600;23.398;2023-08-06T05:03:10;79461.38;;;-138.15;100.00
20897;BME280;10608;42.600;23.398;2023-08-06T05:05:35;80128.63;;;-138.15;100.00
20897;BME280;10608;42.600;23.398;2023-08-06T05:08:01;80037.28;;;-138.15;100.00
20897;BME280;10608;42.600;23.398;2023-08-06T05:10:26;79739.38;;;-138.15;100.00
20897;BME280;10608;42.600;23.398;2023-08-06T05:12:53;80466.28;;;-138.15;96.54
20897;BME280;10608;42.600;23.398;2023-08-06T05:15:18;80738.41;;;-138.15;92.25
20897;BME280;10608;42.600;23.398;2023-08-06T05:17:44;80752.31;;;-138.15;90.58
20897;BME280;10608;42.600;23.398;2023-08-06T05:20:10;80768.19;;;-138.15;89.75
20897;BME280;10608;42.600;23.398;2023-08-06T05:22:36;80790.03;;;-138.15;89.67
20897;BME280;10608;42.600;23.398;2023-08-06T05:25:01;80817.84;;;-138.15;90.53
20897;BME280;10608;42.600;23.398;2023-08-06T05:27:27;80855.59;;;-138.15;91.26
20897;BME280;10608;42.600;23.398;2023-08-06T05:29:55;80815.88;;;-138.15;92.29
20897;BME280;10608;42.600;23.398;2023-08-06T05:32:23;80849.63;;;-138.15;91.16
20897;BME280;10608;42.600;23.398;2023-08-06T05:34:49;80869.50;;;-138.15;90.72
20897;BME280;10608;42.600;23.398;2023-08-06T05:37:14;80937.03;;;-138.15;90.00
20897;BME280;10608;42.600;23.398;2023-08-06T05:39:39;80931.06;;;-138.15;90.79
20897;BME280;10608;42.600;23.398;2023-08-06T05:42:05;80974.78;;;-138.15;89.92
20897;BME280;10608;42.600;23.398;2023-08-06T05:44:30;80952.94;;;-138.15;89.24
20897;BME280;10608;42.600;23.398;2023-08-06T05:46:56;80941.00;;;-138.15;88.35
20897;BME280;10608;42.600;23.398;2023-08-06T05:49:21;80899.28;;;-138.15;88.46
20897;BME280;10608;42.600;23.398;2023-08-06T05:51:47;80919.16;;;-138.15;89.97
20897;BME280;10608;42.600;23.398;2023-08-06T05:54:12;80917.16;;;-138.15;90.84
20897;BME280;10608;42.600;23.398;2023-08-06T05:56:38;80909.22;;;-138.15;90.46
20897;BME280;10608;42.600;23.398;2023-08-06T05:59:03;80855.59;;;-138.15;91.10
20897;BME280;10608;42.600;23.398;2023-08-06T06:01:28;80954.91;;;-138.15;91.87
20897;BME280;10608;42.600;23.398;2023-08-06T06:03:54;80952.94;;;-138.15;89.75
20897;BME280;10608;42.600;23.398;2023-08-06T06:06:19;80871.47;;;-138.15;91.12
20897;BME280;10608;42.600;23.398;2023-08-06T06:08:45;80897.31;;;-138.15;90.73
20897;BME280;10608;42.600;23.398;2023-08-06T06:11:10;80861.56;;;-138.15;91.00
20897;BME280;10608;42.600;23.398;2023-08-06T06:13:36;80813.88;;;-138.15;90.60
20897;BME280;10608;42.600;23.398;2023-08-06T06:16:01;80827.78;;;-138.15;88.14
20897;BME280;10608;42.600;23.398;2023-08-06T06:18:27;80798.00;;;-138.15;88.30
20897;BME280;10608;42.600;23.398;2023-08-06T06:20:52;80774.16;;;-138.15;88.12
20897;BME280;10608;42.600;23.398;2023-08-06T06:23:17;80720.53;;;-138.15;87.55
20897;BME280;10608;42.600;23.398;2023-08-06T06:25:52;80710.59;;;-138.15;86.81
20897;BME280;10608;42.600;23.398;2023-08-06T06:28:18;80760.25;;;-138.15;83.83
20897;BME280;10608;42.600;23.398;2023-08-06T06:30:43;80720.53;;;-138.15;83.50
20897;BME280;10608;42.600;23.398;2023-08-06T06:33:09;80611.28;;;-138.15;81.25
20897;BME280;10608;42.600;23.398;2023-08-06T06:35:34;80557.63;;;-138.15;79.07
20897;BME280;10608;42.600;23.398;2023-08-06T06:38:00;80500.03;;;-138.15;77.72
20897;BME280;10608;42.600;23.398;2023-08-06T06:40:26;80406.69;;;-138.15;75.46
20897;BME280;10608;42.600;23.398;2023-08-06T06:42:51;80345.13;;;-138.15;74.02
20897;BME280;10608;42.600;23.398;2023-08-06T06:45:17;80347.09;;;-138.15;72.97
20897;BME280;10608;42.600;23.398;2023-08-06T06:47:42;80341.16;;;-138.15;73.12
20897;BME280;10608;42.600;23.398;2023-08-06T06:50:08;80325.25;;;-138.15;74.34
20897;BME280;10608;42.600;23.398;2023-08-06T06:52:34;80488.13;;;-138.15;72.43
20897;BME280;10608;42.600;23.398;2023-08-06T06:55:00;80555.66;;;-138.15;74.54
20897;BME280;10608;42.600;23.398;2023-08-06T06:57:25;80637.09;;;-138.15;76.90
20897;BME280;10608;42.600;23.398;2023-08-06T06:59:50;80668.88;;;-138.15;79.87
20897;BME280;10608;42.600;23.398;2023-08-06T07:02:16;80674.84;;;-138.15;79.19
20897;BME280;10608;42.600;23.398;2023-08-06T07:04:41;80754.28;;;-138.15;78.28
20897;BME280;10608;42.600;23.398;2023-08-06T07:07:06;80933.06;;;-138.15;80.48
20897;BME280;10608;42.600;23.398;2023-08-06T07:09:32;80766.22;;;-138.15;82.45
20897;BME280;10608;42.600;23.398;2023-08-06T07:11:57;80762.22;;;-138.15;81.53
20897;BME280;10608;42.600;23.398;2023-08-06T07:14:25;80780.09;;;-138.15;82.92
20897;BME280;10608;42.600;23.398;2023-08-06T07:16:51;80811.91;;;-138.15;83.74
20897;BME280;10608;42.600;23.398;2023-08-06T07:19:16;80698.66;;;-138.15;84.16
20897;BME280;10608;42.600;23.398;2023-08-06T07:21:41;80506.00;;;-138.15;81.27
20897;BME280;10608;42.600;23.398;2023-08-06T07:24:07;79963.78;;;-138.15;73.70
20897;BME280;10608;42.600;23.398;2023-08-06T07:26:32;78851.81;;;-138.15;60.93
20897;BME280;10608;42.600;23.398;2023-08-06T07:28:58;78121.22;;;-138.15;45.24
20897;BME280;10608;42.600;23.398;2023-08-06T07:31:23;77307.44;;;-138.15;40.32
20897;BME280;10608;42.600;23.398;2023-08-06T07:33:48;76595.00;;;-138.15;33.71
20897;BME280;10608;42.600;23.398;2023-08-06T07:36:14;75696.22;;;-138.15;32.38
20897;BME280;10608;42.600;23.398;2023-08-06T07:38:41;75253.84;;;-138.15;31.09
20897;BME280;10608;42.600;23.398;2023-08-06T07:41:06;74690.53;;;-138.15;28.23
20897;BME280;10608;42.600;23.398;2023-08-06T07:43:32;74252.22;;;-138.15;28.89
20897;BME280;10608;42.600;23.398;2023-08-06T07:46:01;73796.13;;;-138.15;26.69
20897;BME280;10608;42.600;23.398;2023-08-06T07:48:27;74174.88;;;-138.15;25.35
20897;BME280;10608;42.600;23.398;2023-08-06T07:50:56;74149.13;;;-138.15;25.60
20897;BME280;10608;42.600;23.398;2023-08-06T07:53:22;73474.91;;;-138.15;25.99
20897;BME280;10608;42.600;23.398;2023-08-06T07:55:51;73597.84;;;-138.15;23.95
20897;BME280;10608;42.600;23.398;2023-08-06T07:58:18;73391.66;;;-138.15;24.18
20897;BME280;10608;42.600;23.398;2023-08-06T08:00:44;73881.41;;;-138.15;24.13
20897;BME280;10608;42.600;23.398;2023-08-06T08:03:14;74537.81;;;-138.15;25.08
20897;BME280;10608;42.600;23.398;2023-08-06T08:05:40;74408.91;;;-138.15;24.61
20897;BME280;10608;42.600;23.398;2023-08-06T08:08:05;74164.97;;;-138.15;24.60
20897;BME280;10608;42.600;23.398;2023-08-06T08:10:32;73825.88;;;-138.15;24.40
20897;BME280;10608;42.600;23.398;2023-08-06T08:12:58;73122.00;;;-138.15;24.06
20897;BME280;10608;42.600;23.398;2023-08-06T08:15:24;72886.09;;;-138.15;23.18
20897;BME280;10608;42.600;23.398;2023-08-06T08:17:51;72763.16;;;-138.15;22.12
20897;BME280;10608;42.600;23.398;2023-08-06T08:20:17;72224.00;;;-138.15;21.65
20897;BME280;10608;42.600;23.398;2023-08-06T08:22:43;72699.72;;;-138.15;21.59
20897;BME280;10608;42.600;23.398;2023-08-06T08:25:08;72840.47;;;-138.15;21.07
20897;BME280;10608;42.600;23.398;2023-08-06T08:27:34;72854.38;;;-138.15;22.12
20897;BME280;10608;42.600;23.398;2023-08-06T08:29:59;72675.94;;;-138.15;22.37
20897;BME280;10608;42.600;23.398;2023-08-06T08:32:24;72507.44;;;-138.15;22.30
20897;BME280;10608;42.600;23.398;2023-08-06T08:34:50;72376.63;;;-138.15;21.34
20897;BME280;10608;42.600;23.398;2023-08-06T08:37:15;72424.19;;;-138.15;21.27
20897;BME280;10608;42.600;23.398;2023-08-06T08:39:40;72499.53;;;-138.15;20.54
20897;BME280;10608;42.600;23.398;2023-08-06T08:42:06;73054.59;;;-138.15;21.57
20897;BME280;10608;42.600;23.398;2023-08-06T08:44:32;73453.09;;;-138.15;21.37
20897;BME280;10608;42.600;23.398;2023-08-06T08:46:59;73415.44;;;-138.15;21.95
20897;BME280;10608;42.600;23.398;2023-08-06T08:49:26;74129.28;;;-138.15;21.87
20897;BME280;10608;42.600;23.398;2023-08-06T08:51:53;74878.97;;;-138.15;23.51
20897;BME280;10608;42.600;23.398;2023-08-06T08:54:22;74214.56;;;-138.15;22.30
20897;BME280;10608;42.600;23.398;2023-08-06T08:56:48;73859.59;;;-138.15;23.26
20897;BME280;10608;42.600;23.398;2023-08-06T08:59:13;73457.06;;;-138.15;21.67
20897;BME280;10608;42.600;23.398;2023-08-06T09:01:39;73911.16;;;-138.15;21.75
20897;BME280;10608;42.600;23.398;2023-08-06T09:04:05;73716.81;;;-138.15;21.95
20897;BME280;10608;42.600;23.398;2023-08-06T09:06:33;73794.16;;;-138.15;21.84
20897;BME280;10608;42.600;23.398;2023-08-06T09:09:08;73950.81;;;-138.15;23.34
20897;BME280;10608;42.600;23.398;2023-08-06T09:11:39;73883.38;;;-138.15;21.94
20897;BME280;10608;42.600;23.398;2023-08-06T09:14:07;74297.84;;;-138.15;22.67
20897;BME280;10608;42.600;23.398;2023-08-06T09:16:36;74022.19;;;-138.15;22.02
20897;BME280;10608;42.600;23.398;2023-08-06T09:19:11;74224.47;;;-138.15;23.57
20897;BME280;10608;42.600;23.398;2023-08-06T09:21:46;74851.19;;;-138.15;22.60
20897;BME280;10608;42.600;23.398;2023-08-06T09:24:14;74519.97;;;-138.15;23.05
20897;BME280;10608;42.600;23.398;2023-08-06T09:26:42;74252.22;;;-138.15;22.59
20897;BME280;10608;42.600;23.398;2023-08-06T09:29:09;74137.22;;;-138.15;22.96
20897;BME280;10608;42.600;23.398;2023-08-06T09:31:45;73863.56;;;-138.15;21.90
20897;BME280;10608;42.600;23.398;2023-08-06T09:34:21;74452.53;;;-138.15;22.98
20897;BME280;10608;42.600;23.398;2023-08-06T09:36:51;74636.97;;;-138.15;21.84
20897;BME280;10608;42.600;23.398;2023-08-06T09:39:26;74222.47;;;-138.15;21.70
20897;BME280;10608;42.600;23.398;2023-08-06T09:41:58;73849.69;;;-138.15;21.08
20897;BME280;10608;42.600;23.398;2023-08-06T09:44:25;73580.00;;;-138.15;20.62
20897;BME280;10608;42.600;23.398;2023-08-06T09:47:02;73562.16;;;-138.15;20.95
20897;BME280;10608;42.600;23.398;2023-08-06T09:49:28;73591.91;;;-138.15;20.29
20897;BME280;10608;42.600;23.398;2023-08-06T09:52:05;73966.66;;;-138.15;21.90
20897;BME280;10608;42.600;23.398;2023-08-06T09:54:32;74851.19;;;-138.15;22.12
20897;BME280;10608;42.600;23.398;2023-08-06T09:57:00;76007.69;;;-138.15;24.73
20897;BME280;10608;42.600;23.398;2023-08-06T09:59:26;76468.03;;;-138.15;25.61
20897;BME280;10608;42.600;23.398;2023-08-06T10:01:53;77049.44;;;-138.15;26.09
20897;BME280;10608;42.600;23.398;2023-08-06T10:04:20;77331.25;;;-138.15;27.38
20897;BME280;10608;42.600;23.398;2023-08-06T10:06:46;77388.81;;;-138.15;28.10
20897;BME280;10608;42.600;23.398;2023-08-06T10:09:13;77309.44;;;-138.15;28.05
20897;BME280;10608;42.600;23.398;2023-08-06T10:11:39;77378.88;;;-138.15;27.78
20897;BME280;10608;42.600;23.398;2023-08-06T10:14:13;77422.56;;;-138.15;27.76
20897;BME280;10608;42.600;23.398;2023-08-06T10:16:41;77541.63;;;-138.15;27.90
20897;BME280;10608;42.600;23.398;2023-08-06T10:19:09;77720.28;;;-138.15;28.36
20897;BME280;10608;42.600;23.398;2023-08-06T10:21:35;77771.88;;;-138.15;28.47
20897;BME280;10608;42.600;23.398;2023-08-06T10:24:00;77894.94;;;-138.15;28.27
20897;BME280;10608;42.600;23.398;2023-08-06T10:26:28;77906.84;;;-138.15;28.79
20897;BME280;10608;42.600;23.398;2023-08-06T10:28:54;77845.31;;;-138.15;29.10
20897;BME280;10608;42.600;23.398;2023-08-06T10:31:24;77801.66;;;-138.15;28.97
20897;BME280;10608;42.600;23.398;2023-08-06T10:34:05;77974.34;;;-138.15;29.22
20897;BME280;10608;42.600;23.398;2023-08-06T10:36:31;77986.25;;;-138.15;29.45
20897;BME280;10608;42.600;23.398;2023-08-06T10:38:58;78016.03;;;-138.15;29.63
20897;BME280;10608;42.600;23.398;2023-08-06T10:41:28;78045.81;;;-138.15;29.93
20897;BME280;10608;42.600;23.398;2023-08-06T10:44:07;78147.03;;;-138.15;29.34
20897;BME280;10608;42.600;23.398;2023-08-06T10:46:36;78291.94;;;-138.15;29.96
20897;BME280;10608;42.600;23.398;2023-08-06T10:49:02;78369.38;;;-138.15;30.29
20897;BME280;10608;42.600;23.398;2023-08-06T10:51:28;78466.66;;;-138.15;30.74
20897;BME280;10608;42.600;23.398;2023-08-06T10:53:54;78468.63;;;-138.15;30.49
20897;BME280;10608;42.600;23.398;2023-08-06T10:56:24;78548.03;;;-138.15;31.81
20897;BME280;10608;42.600;23.398;2023-08-06T10:58:53;78569.88;;;-138.15;31.89
20897;BME280;10608;42.600;23.398;2023-08-06T11:01:19;78589.72;;;-138.15;32.43
20897;BME280;10608;42.600;23.398;2023-08-06T11:03:46;78647.31;;;-138.15;32.08
20897;BME280;10608;42.600;23.398;2023-08-06T11:06:17;78728.72;;;-138.15;31.94
20897;BME280;10608;42.600;23.398;2023-08-06T11:08:51;78722.75;;;-138.15;32.55
20897;BME280;10608;42.600;23.398;2023-08-06T11:11:17;78692.97;;;-138.15;32.18
20897;BME280;10608;42.600;23.398;2023-08-06T11:13:45;78696.94;;;-138.15;31.79
20897;BME280;10608;42.600;23.398;2023-08-06T11:16:12;78589.72;;;-138.15;32.25
20897;BME280;10608;42.600;23.398;2023-08-06T11:18:40;78361.44;;;-138.15;31.75
20897;BME280;10608;42.600;23.398;2023-08-06T11:21:05;78156.97;;;-138.15;31.25
20897;BME280;10608;42.600;23.398;2023-08-06T11:23:34;77871.13;;;-138.15;30.27
20897;BME280;10608;42.600;23.398;2023-08-06T11:25:59;77676.59;;;-138.15;29.49
20897;BME280;10608;42.600;23.398;2023-08-06T11:28:25;77384.84;;;-138.15;29.53
20897;BME280;10608;42.600;23.398;2023-08-06T11:30:51;77237.97;;;-138.15;28.67
20897;BME280;10608;42.600;23.398;2023-08-06T11:33:23;77216.16;;;-138.15;28.44
20897;BME280;10608;42.600;23.398;2023-08-06T11:35:51;77234.00;;;-138.15;29.11
20897;BME280;10608;42.600;23.398;2023-08-06T11:38:17;77232.03;;;-138.15;29.24
20897;BME280;10608;42.600;23.398;2023-08-06T11:40:44;77315.38;;;-138.15;27.29
20897;BME280;10608;42.600;23.398;2023-08-06T11:43:11;77430.50;;;-138.15;27.77
20897;BME280;10608;42.600;23.398;2023-08-06T11:45:37;77297.53;;;-138.15;27.69
20897;BME280;10608;42.600;23.398;2023-08-06T11:48:02;77224.09;;;-138.15;26.78
20897;BME280;10608;42.600;23.398;2023-08-06T11:50:28;77305.47;;;-138.15;27.70
20897;BME280;10608;42.600;23.398;2023-08-06T11:52:56;77347.13;;;-138.15;27.20
20897;BME280;10608;42.600;23.398;2023-08-06T11:55:23;77533.69;;;-138.15;27.60
20897;BME280;10608;42.600;23.398;2023-08-06T11:57:49;77757.97;;;-138.15;27.85
20897;BME280;10608;42.600;23.398;2023-08-06T12:00:14;78010.06;;;-138.15;29.05
20897;BME280;10608;42.600;23.398;2023-08-06T12:02:43;77930.66;;;-138.15;29.69
20897;BME280;10608;42.600;23.398;2023-08-06T12:05:16;77877.06;;;-138.15;29.79
20897;BME280;10608;42.600;23.398;2023-08-06T12:07:45;77827.47;;;-138.15;30.24
20897;BME280;10608;42.600;23.398;2023-08-06T12:10:12;77799.66;;;-138.15;30.26
20897;BME280;10608;42.600;23.398;2023-08-06T12:12:38;77974.34;;;-138.15;30.74
20897;BME280;10608;42.600;23.398;2023-08-06T12:15:05;78170.84;;;-138.15;31.42
20897;BME280;10608;42.600;23.398;2023-08-06T12:17:31;78158.94;;;-138.15;31.31
20897;BME280;10608;42.600;23.398;2023-08-06T12:19:57;77962.44;;;-138.15;31.19
20897;BME280;10608;42.600;23.398;2023-08-06T12:22:22;78008.09;;;-138.15;30.83
20897;BME280;10608;42.600;23.398;2023-08-06T12:24:48;77982.28;;;-138.15;31.44